Bridgeton, Indiana
Current Conditions -  °F | °C
As of 2:53 PM on Saturday 25 Oct 2014 (Local Time) from KHUF Reporting Station
Clear Clear  
Wind Chill: 77°   Ceiling: Unl
Heat Index: 78°   Visibility: 10mi
Dew Point: 53°   Wind: 9mph
Humidity: 43%   Direction: 310°NW
Pressure: 29.97"   Gusts: NA
Location:  39.65°N, 87.18°W
Report Text: KHUF 251853Z 31008KT 10SM CLR 25/12 A2997 RMK AO2 SLP146 T02500117
Loading
Personal Weather Stations






























Interactive Weather Map
Tropical Storm Tracking
New forecast layout! Learn more

10-Day Weather Forecast

Advertisements
Track Severe Weather on mobile